Latest Weather Observations for Wagga Wagga

IDN60801

Issued at 12:42 pm EDT Thursday 23 January 2020 (issued every 10 minutes, with the page automatically refreshed every 10 minutes)

About weather observations | Map of weather stations | Latest weather observations for NSW | Other Formats
Station Details ID: 072150 Name: WAGGA WAGGA AMO Lat: -35.16 Lon: 147.46 Height: 212.0 m
Data from the previous 72 hours. | See also: Recent months at Wagga Wagga
Date/Time
EDT
Temp
°C
App
Temp
°C
Dew
Point
°C
Rel
Hum
%
Delta-T
°C
Wind Press
QNH
hPa
Press
MSL
hPa
Rain since
9am
mm
Dir  Spd
km/h
Gust
km/h
Spd
kts
Gust
kts
23/12:30pm 24.5 21.8 11.8 45 7.3 WNW 17 28 9 15 1002.5 1001.4 0.0
23/12:00pm 24.8 22.3 12.4 46 7.2 WSW 17 26 9 14 1003.4 1002.4 0.0
23/11:30am 24.1 19.8 12.1 47 6.9 WSW 26 35 14 19 1002.8 1001.7 0.0
23/11:00am 23.9 21.5 12.5 49 6.6 SW 17 26 9 14 1002.4 1001.3 0.0
23/10:30am 23.9 20.2 12.8 49 6.4 WSW 24 35 13 19 1003.5 1002.5 0.0
23/10:00am 22.3 18.2 12.8 55 5.5 WSW 26 33 14 18 1002.9 1001.8 0.0
23/09:30am 22.2 17.7 13.8 59 4.9 WSW 30 41 16 22 1002.8 1001.7 0.0
23/09:14am 22.2 16.5 14.3 61 4.7 WSW 37 56 20 30 1001.6 1000.5 0.0
23/09:00am 22.6 15.6 13.7 57 5.2 WSW 43 50 23 27 1001.6 1000.5 0.0
23/08:30am 23.0 15.7 13.5 55 5.6 WSW 44 56 24 30 1001.2 1000.1 0.0
23/08:27am 22.7 15.4 12.9 54 5.7 WSW 43 56 23 30 1000.6 999.5 0.0
23/08:04am 27.7 20.8 6.5 26 11.3 NW 32 48 17 26 999.2 998.2 0.0
23/08:00am 30.1 22.5 -2.4 12 15.1 NNW 28 39 15 21 998.8 997.7 0.0
23/07:30am 29.0 23.6 -1.2 14 14.2 N 17 24 9 13 997.8 996.7 0.0
23/07:00am 29.1 23.2 -1.1 14 14.3 NNW 20 35 11 19 997.7 996.6 0.0
23/06:30am 29.6 22.1 -1.7 13 14.6 N 28 37 15 20 997.6 996.5 0.0
23/06:00am 29.7 21.8 -1.6 13 14.7 N 30 46 16 25 997.2 996.1 0.0
23/05:30am 29.5 21.7 -0.8 14 14.4 N 30 44 16 24 997.5 996.4 0.0
23/05:00am 29.4 22.0 -0.9 14 14.4 N 28 39 15 21 997.7 996.6 0.0
23/04:30am 29.3 21.6 0.0 15 14.1 N 30 41 16 22 997.9 996.8 0.0
23/04:00am 29.5 21.8 0.2 15 14.2 N 30 46 16 25 998.0 996.9 0.0
23/03:30am 29.6 21.6 0.2 15 14.2 N 32 46 17 25 998.2 997.1 0.0
23/03:00am 29.7 21.8 1.2 16 14.1 NNE 32 44 17 24 998.5 997.4 0.0
23/02:42am 29.7 22.2 1.2 16 14.0 N 30 50 16 27 998.8 997.7 0.0
23/02:30am 29.7 21.8 1.2 16 14.0 N 32 46 17 25 999.0 998.0 0.0
23/02:24am 29.7 22.6 1.2 16 14.0 NNE 28 46 15 25 999.1 998.1 0.0
23/02:00am 29.7 22.0 2.1 17 13.9 NNE 32 41 17 22 999.6 998.5 0.0
23/01:30am 30.1 23.0 1.5 16 14.2 NNE 28 41 15 22 999.9 998.8 0.0
23/01:00am 30.4 23.4 1.8 16 14.3 NNE 28 43 15 23 1000.3 999.2 0.0
23/12:30am 30.6 24.2 1.0 15 14.6 NNE 24 39 13 21 1000.4 999.3 0.0
23/12:00am 30.4 24.1 1.8 16 14.3 N 24 33 13 18 1000.6 999.5 0.0
 
Date/Time
EDT
Temp
°C
App
Temp
°C
Dew
Point
°C
Rel
Hum
%
Delta-T
°C
Wind Press
QNH
hPa
Press
MSL
hPa
Rain since
9am
mm
Dir  Spd
km/h
Gust
km/h
Spd
kts
Gust
kts
22/11:30pm 30.6 24.6 1.0 15 14.6 N 22 30 12 16 1000.6 999.5 0.0
22/11:00pm 30.7 25.1 1.1 15 14.7 NNE 20 26 11 14 1000.8 999.7 0.0
22/10:30pm 30.7 25.8 2.0 16 14.4 NNE 17 24 9 13 1001.2 1000.1 0.0
22/10:00pm 30.5 27.0 3.5 18 13.9 NNE 11 15 6 8 1001.3 1000.2 0.0
22/09:30pm 30.2 26.4 4.0 19 13.5 NNE 13 17 7 9 1001.3 1000.2 0.0
22/09:00pm 30.6 27.4 2.8 17 14.2 NE 9 11 5 6 1001.3 1000.2 0.0
22/08:30pm 32.0 29.0 2.1 15 15.1 N 7 11 4 6 1001.5 1000.4 0.0
22/08:00pm 33.4 29.1 1.3 13 16.3 N 13 20 7 11 1001.7 1000.6 0.0
22/07:30pm 34.8 29.0 0.0 11 17.3 NNW 20 28 11 15 1001.7 1000.6 0.0
22/07:00pm 34.9 29.3 0.1 11 17.4 NNW 19 30 10 16 1001.6 1000.5 0.0
22/06:30pm 35.2 29.5 0.3 11 17.5 NW 20 33 11 18 1001.7 1000.6 0.0
22/06:00pm 35.8 30.1 0.8 11 17.8 NNW 20 37 11 20 1001.7 1000.6 0.0
22/05:30pm 35.6 28.8 0.6 11 17.7 NW 26 39 14 21 1002.2 1001.1 0.0
22/05:00pm 36.8 30.1 1.5 11 18.3 NNW 26 37 14 20 1002.6 1001.5 0.0
22/04:30pm 34.8 28.4 1.2 12 17.1 NNW 24 39 13 21 1003.0 1001.9 0.0
22/04:00pm 34.8 28.8 3.4 14 16.6 NNW 24 37 13 20 1003.5 1002.5 0.0
22/03:30pm 35.1 28.2 2.6 13 16.9 NNW 28 44 15 24 1003.9 1002.9 0.0
22/03:20pm 34.6 28.4 2.2 13 16.7 NNW 24 46 13 25 1004.1 1003.1 0.0
22/03:00pm 34.5 28.1 3.1 14 16.5 NNW 26 41 14 22 1004.6 1003.5 0.0
22/02:30pm 33.7 28.1 5.3 17 15.3 N 24 43 13 23 1005.2 1004.1 0.0
22/02:00pm 34.2 28.5 6.5 18 15.3 N 26 41 14 22 1006.0 1004.9 0.0
22/01:30pm 32.9 27.5 4.6 17 15.0 N 22 35 12 19 1006.5 1005.4 0.0
22/01:00pm 32.4 27.8 6.6 20 14.1 N 20 35 11 19 1007.0 1005.9 0.0
22/12:30pm 31.9 27.6 6.9 21 13.7 NNW 19 30 10 16 1007.6 1006.6 0.0
22/12:00pm 31.0 28.2 8.7 25 12.5 NNW 13 26 7 14 1008.1 1007.1 0.0
22/11:30am 31.0 27.6 10.4 28 11.9 NNE 19 30 10 16 1008.5 1007.5 0.0
22/11:00am 29.5 26.7 11.5 33 10.5 NNE 17 32 9 17 1009.0 1008.0 0.0
22/10:30am 27.9 26.6 14.9 45 7.9 NE 15 24 8 13 1009.5 1008.4 0.0
22/10:00am 25.3 23.1 14.4 50 6.5 ENE 19 24 10 13 1009.8 1008.7 0.0
22/09:30am 24.0 22.5 15.2 58 5.3 ENE 17 26 9 14 1010.0 1008.9 0.0
22/09:00am 22.2 19.9 14.6 62 4.5 ENE 20 26 11 14 1010.2 1009.1 0.0
22/08:30am 20.9 19.2 14.8 68 3.6 E 17 20 9 11 1010.3 1009.2 0.0
22/08:00am 19.4 18.3 15.3 77 2.4 E 15 17 8 9 1010.4 1009.3 0.0
22/07:30am 18.5 17.6 14.8 79 2.2 E 13 17 7 9 1010.2 1009.1 0.0
22/07:00am 17.7 16.3 14.6 82 1.8 E 15 19 8 10 1010.0 1008.9 0.0
22/06:30am 17.1 15.7 14.4 84 1.6 ESE 15 17 8 9 1009.8 1008.7 0.0
22/06:00am 17.1 16.0 14.4 84 1.6 E 13 15 7 8 1009.8 1008.7 0.0
22/05:30am 17.1 15.7 14.4 84 1.6 E 15 15 8 8 1009.5 1008.4 0.0
22/05:00am 17.3 16.2 14.4 83 1.7 E 13 15 7 8 1009.3 1008.2 0.0
22/04:30am 17.6 16.2 14.5 82 1.8 E 15 15 8 8 1009.1 1008.1 0.0
22/04:00am 17.8 16.5 14.7 82 1.8 E 15 17 8 9 1008.9 1007.9 0.0
22/03:30am 17.8 16.8 14.5 81 1.9 E 13 15 7 8 1009.0 1008.0 0.0
22/03:00am 18.2 17.6 14.5 79 2.2 E 11 13 6 7 1009.0 1008.0 0.0
22/02:30am 18.2 18.0 14.7 80 2.0 E 9 11 5 6 1009.4 1008.3 0.0
22/02:00am 17.3 17.3 15.1 87 1.3 ESE 9 11 5 6 1009.6 1008.5 0.0
22/01:30am 16.7 18.2 14.7 88 1.2 CALM 0 0 0 0 1009.9 1008.8 0.0
22/01:00am 17.2 17.5 15.0 87 1.3 E 7 9 4 5 1010.0 1008.9 0.0
22/12:30am 16.8 18.3 14.6 87 1.3 CALM 0 0 0 0 1010.2 1009.1 0.0
22/12:00am 16.9 18.3 14.4 85 1.4 CALM 0 0 0 0 1010.3 1009.2 0.0
 
Date/Time
EDT
Temp
°C
App
Temp
°C
Dew
Point
°C
Rel
Hum
%
Delta-T
°C
Wind Press
QNH
hPa
Press
MSL
hPa
Rain since
9am
mm
Dir  Spd
km/h
Gust
km/h
Spd
kts
Gust
kts
21/11:30pm 18.8 18.8 14.3 75 2.6 E 7 9 4 5 1010.2 1009.1 0.0
21/11:00pm 20.1 20.1 14.2 69 3.5 E 7 9 4 5 1010.1 1009.0 0.0
21/10:30pm 19.9 21.3 14.3 70 3.3 CALM 0 6 0 3 1010.3 1009.2 0.0
21/10:00pm 20.4 21.8 14.3 68 3.6 CALM 0 0 0 0 1010.2 1009.1 0.0
21/09:30pm 21.1 22.5 14.3 65 4.0 CALM 0 0 0 0 1010.1 1009.0 0.0
21/09:00pm 22.1 22.5 13.7 59 4.9 NNW 4 7 2 4 1009.8 1008.7 0.0
21/08:30pm 22.7 22.5 13.5 56 5.4 NW 7 7 4 4 1009.5 1008.4 0.0
21/08:00pm 23.3 22.7 13.5 54 5.8 NW 9 13 5 7 1009.3 1008.2 0.0
21/07:30pm 23.9 22.5 13.4 51 6.2 NW 13 19 7 10 1008.9 1007.9 0.0
21/07:00pm 24.3 23.3 13.5 51 6.4 NNW 11 15 6 8 1008.6 1007.6 0.0
21/06:30pm 24.3 23.7 13.5 51 6.4 N 9 19 5 10 1008.3 1007.3 0.0
21/06:00pm 24.3 23.6 13.2 50 6.5 WSW 9 15 5 8 1008.2 1007.2 0.0
21/05:30pm 24.2 23.7 12.8 49 6.6 NNW 7 13 4 7 1008.4 1007.4 0.0
21/05:00pm 24.4 23.6 13.0 49 6.7 NW 9 15 5 8 1008.5 1007.5 0.0
21/04:30pm 24.9 24.6 14.4 52 6.3 NW 9 17 5 9 1008.7 1007.7 0.0
21/04:00pm 23.7 22.1 13.8 53 5.9 W 15 26 8 14 1009.3 1008.2 0.0
21/03:30pm 22.5 20.0 13.6 57 5.2 NW 19 26 10 14 1009.5 1008.4 0.0
21/03:00pm 22.8 20.8 13.8 57 5.3 W 17 24 9 13 1009.7 1008.6 0.0
21/02:30pm 22.4 20.5 14.3 60 4.8 NW 17 24 9 13 1010.2 1009.1 0.0
21/02:00pm 22.6 21.1 14.2 59 5.0 NW 15 22 8 12 1010.3 1009.2 0.0
21/01:30pm 21.6 20.6 14.7 65 4.1 W 13 19 7 10 1010.5 1009.4 0.0
21/01:00pm 21.4 20.2 14.1 63 4.3 W 13 17 7 9 1010.7 1009.6 0.0
21/12:30pm 20.1 18.2 14.2 69 3.5 WNW 17 20 9 11 1010.9 1009.8 0.0
21/12:00pm 20.3 19.3 14.7 70 3.3 WNW 13 17 7 9 1010.9 1009.8 0.0
21/11:30am 20.1 19.4 14.2 69 3.5 WNW 11 15 6 8 1010.8 1009.7 0.0
21/11:00am 19.8 19.6 14.6 72 3.1 NNW 9 15 5 8 1010.7 1009.6 0.0
21/10:30am 19.5 19.6 14.5 73 2.9 NW 7 13 4 7 1010.5 1009.4 0.0
21/10:00am 19.4 19.7 14.9 75 2.7 W 7 13 4 7 1010.3 1009.2 0.0
21/09:30am 18.7 18.3 15.2 80 2.1 WSW 11 15 6 8 1010.1 1009.0 0.0
21/09:12am 18.7 18.3 16.3 86 1.4 WSW 13 17 7 9 1010.0 1008.9 0.0
21/09:00am 18.2 17.8 15.3 83 1.7 W 11 15 6 8 1009.9 1008.8 8.0
21/08:30am 17.7 16.8 15.9 89 1.1 WSW 15 17 8 9 1009.5 1008.4 8.0
21/08:11am 17.5 16.6 15.8 90 1.0 W 15 19 8 10 1009.1 1008.1 8.0
21/08:00am 17.5 16.2 15.8 90 1.0 W 17 22 9 12 1008.9 1007.9 8.0
21/07:30am 17.4 16.8 16.6 95 0.5 W 15 17 8 9 1008.3 1007.3 8.0
21/07:23am 17.4 17.2 16.6 95 0.5 W 13 17 7 9 1008.2 1007.2 8.0
21/07:00am 17.3 17.4 16.5 95 0.5 W 11 15 6 8 1007.8 1006.8 8.0
21/06:30am 17.4 17.3 16.9 97 0.3 WNW 13 15 7 8 1007.4 1006.4 8.0
21/06:23am 17.4 17.7 16.9 97 0.3 NW 11 15 6 8 1007.4 1006.4 8.0
21/06:00am 17.3 17.3 17.1 99 0.1 NW 13 17 7 9 1007.1 1006.0 8.0
21/05:30am 17.2 17.5 17.0 99 0.1 WNW 11 15 6 8 1006.7 1005.6 8.0
21/05:00am 17.2 17.1 17.0 99 0.1 WNW 13 15 7 8 1006.5 1005.4 8.0
21/04:41am 17.2 17.5 17.0 99 0.1 WNW 11 13 6 7 1006.3 1005.2 8.0
21/04:30am 17.1 17.4 16.9 99 0.1 NW 11 13 6 7 1006.2 1005.1 8.0
21/04:00am 16.9 17.2 16.9 100 0.0 NW 11 15 6 8 1006.1 1005.0 8.0
21/03:30am 16.7 16.5 16.7 100 0.0 NW 13 17 7 9 1005.9 1004.8 8.0
21/03:18am 16.7 16.5 16.7 100 0.0 NW 13 15 7 8 1006.0 1004.9 8.0
21/03:15am 16.7 16.9 16.7 100 0.0 NNW 11 15 6 8 1005.9 1004.8 8.0
21/03:00am 16.6 16.7 16.6 100 0.0 NNW 11 13 6 7 1005.8 1004.7 8.0
21/02:30am 16.4 16.8 16.4 100 0.0 NNW 9 11 5 6 1005.8 1004.7 8.0
21/02:00am 16.2 16.5 16.0 99 0.1 NW 9 11 5 6 1005.7 1004.6 8.0
21/01:49am 16.1 16.0 15.9 99 0.1 NW 11 13 6 7 1005.8 1004.7 8.0
21/01:30am 16.1 16.0 15.9 99 0.1 NNW 11 13 6 7 1005.8 1004.7 8.0
21/01:00am 15.6 15.3 15.4 99 0.1 NNW 11 13 6 7 1005.8 1004.7 8.0
21/12:30am 15.3 15.2 15.0 98 0.2 NNW 9 13 5 7 1005.9 1004.8 8.0
21/12:00am 15.4 15.9 14.9 97 0.3 WSW 6 7 3 4 1005.8 1004.7 8.0
 
Date/Time
EDT
Temp
°C
App
Temp
°C
Dew
Point
°C
Rel
Hum
%
Delta-T
°C
Wind Press
QNH
hPa
Press
MSL
hPa
Rain since
9am
mm
Dir  Spd
km/h
Gust
km/h
Spd
kts
Gust
kts
20/11:30pm 15.1 15.0 14.9 99 0.1 WSW 9 11 5 6 1005.8 1004.7 8.0
20/11:00pm 15.5 17.0 14.7 95 0.5 CALM 0 0 0 0 1005.3 1004.2 8.0
20/10:30pm 15.6 15.8 14.1 91 0.9 E 6 7 3 4 1005.3 1004.2 8.0
20/10:00pm 15.7 15.7 14.2 91 0.9 ENE 7 9 4 5 1005.4 1004.3 8.0
20/09:30pm 15.7 16.1 13.7 88 1.1 W 4 9 2 5 1005.6 1004.5 8.0
20/09:00pm 15.8 12.3 13.3 85 1.4 WNW 24 35 13 19 1005.9 1004.8 7.6
20/08:42pm 17.4 13.7 13.9 80 2.0 WNW 26 48 14 26 1006.1 1005.0 7.2
20/08:30pm 19.8 17.6 14.4 71 3.2 W 19 28 10 15 1005.4 1004.3 6.8
20/08:00pm 20.3 20.1 14.7 70 3.3 WSW 9 13 5 7 1004.1 1003.1 6.8
20/07:30pm 20.7 20.1 14.6 68 3.6 SW 11 13 6 7 1004.0 1003.0 6.8
20/07:00pm 20.9 18.9 13.8 64 4.2 SW 17 19 9 10 1003.8 1002.8 6.8
20/06:30pm 21.2 18.7 13.4 61 4.5 WSW 19 26 10 14 1003.5 1002.5 6.8
20/06:00pm 21.8 17.9 13.2 58 5.0 WSW 26 33 14 18 1003.1 1002.0 6.8
20/05:30pm 22.6 18.3 12.0 51 6.0 W 26 35 14 19 1002.7 1001.6 6.8
20/05:00pm 22.8 19.4 12.4 52 6.0 NW 22 32 12 17 1002.4 1001.3 6.8
20/04:30pm 23.1 18.3 11.5 48 6.6 WNW 28 37 15 20 1002.1 1001.0 6.8
20/04:00pm 23.5 20.3 11.9 48 6.7 NW 20 32 11 17 1001.8 1000.7 6.8
20/03:30pm 22.9 19.9 12.5 52 6.0 N 20 35 11 19 1001.9 1000.8 6.8
20/03:00pm 23.2 22.0 13.9 56 5.5 N 13 20 7 11 1002.3 1001.2 6.8
20/02:30pm 21.8 20.8 14.7 64 4.2 NE 13 20 7 11 1002.7 1001.6 6.8
20/02:00pm 20.7 19.2 14.1 66 3.9 ENE 15 20 8 11 1002.8 1001.7 6.8
20/01:30pm 18.3 16.1 14.4 78 2.3 SE 19 30 10 16 1001.9 1000.8 6.8
20/01:00pm 17.5 14.1 15.8 90 1.0 SE 28 33 15 18 1002.6 1001.5 6.8

Other formats

Comma delimited format used in spreadsheet applications
http://www.bom.gov.au/fwo/IDN60801/IDN60801.94910.axf

JavaScript Object Notation format (JSON) in row-major order
http://www.bom.gov.au/fwo/IDN60801/IDN60801.94910.json

Data quality

Most of these data are generated automatically and are frequently updated. Quality checks on data are not normally performed. It is possible for incorrect values to appear. Refer to information at About Latest Weather Observations and please check the disclaimer before using these data.